sensor_id;sensor_type;location;lat;lon;timestamp;P1;durP1;ratioP1;P2;durP2;ratioP2
9854;SDS011;4966;48.112;9.282;2022-10-01T00:00:19;10.73;;;5.30;;
9854;SDS011;4966;48.112;9.282;2022-10-01T00:02:45;9.35;;;5.05;;
9854;SDS011;4966;48.112;9.282;2022-10-01T00:05:10;11.40;;;4.63;;
9854;SDS011;4966;48.112;9.282;2022-10-01T00:07:40;11.02;;;5.07;;
9854;SDS011;4966;48.112;9.282;2022-10-01T00:10:07;20.33;;;5.32;;
9854;SDS011;4966;48.112;9.282;2022-10-01T00:12:35;11.23;;;4.78;;
9854;SDS011;4966;48.112;9.282;2022-10-01T00:15:01;10.05;;;4.50;;
9854;SDS011;4966;48.112;9.282;2022-10-01T00:17:27;10.65;;;4.78;;
9854;SDS011;4966;48.112;9.282;2022-10-01T00:19:52;11.10;;;5.05;;
9854;SDS011;4966;48.112;9.282;2022-10-01T00:22:18;12.05;;;5.45;;
9854;SDS011;4966;48.112;9.282;2022-10-01T00:24:44;8.90;;;4.55;;
9854;SDS011;4966;48.112;9.282;2022-10-01T00:27:11;11.13;;;5.00;;
9854;SDS011;4966;48.112;9.282;2022-10-01T00:29:37;10.35;;;4.68;;
9854;SDS011;4966;48.112;9.282;2022-10-01T00:32:03;11.18;;;5.00;;
9854;SDS011;4966;48.112;9.282;2022-10-01T00:34:28;10.18;;;4.68;;
9854;SDS011;4966;48.112;9.282;2022-10-01T00:36:54;8.95;;;4.40;;
9854;SDS011;4966;48.112;9.282;2022-10-01T00:39:19;9.80;;;4.30;;
9854;SDS011;4966;48.112;9.282;2022-10-01T00:41:44;9.65;;;4.45;;
9854;SDS011;4966;48.112;9.282;2022-10-01T00:44:27;11.65;;;4.32;;
9854;SDS011;4966;48.112;9.282;2022-10-01T00:46:52;9.65;;;4.75;;
9854;SDS011;4966;48.112;9.282;2022-10-01T00:49:22;8.32;;;4.00;;
9854;SDS011;4966;48.112;9.282;2022-10-01T00:52:00;9.55;;;4.20;;
9854;SDS011;4966;48.112;9.282;2022-10-01T00:57:10;12.00;;;4.03;;
9854;SDS011;4966;48.112;9.282;2022-10-01T00:59:39;9.32;;;4.30;;
9854;SDS011;4966;48.112;9.282;2022-10-01T01:02:04;9.88;;;4.28;;
9854;SDS011;4966;48.112;9.282;2022-10-01T01:04:30;11.27;;;4.25;;
9854;SDS011;4966;48.112;9.282;2022-10-01T01:06:57;10.25;;;4.22;;
9854;SDS011;4966;48.112;9.282;2022-10-01T01:09:28;10.40;;;4.07;;
9854;SDS011;4966;48.112;9.282;2022-10-01T01:14:39;10.00;;;4.05;;
9854;SDS011;4966;48.112;9.282;2022-10-01T01:17:13;9.48;;;4.05;;
9854;SDS011;4966;48.112;9.282;2022-10-01T01:19:57;9.90;;;4.43;;
9854;SDS011;4966;48.112;9.282;2022-10-01T01:22:35;8.80;;;3.97;;
9854;SDS011;4966;48.112;9.282;2022-10-01T01:25:07;8.15;;;4.03;;
9854;SDS011;4966;48.112;9.282;2022-10-01T01:27:44;9.10;;;3.92;;
9854;SDS011;4966;48.112;9.282;2022-10-01T01:30:13;9.65;;;4.05;;
9854;SDS011;4966;48.112;9.282;2022-10-01T01:32:42;9.82;;;3.80;;
9854;SDS011;4966;48.112;9.282;2022-10-01T01:35:11;10.13;;;3.38;;
9854;SDS011;4966;48.112;9.282;2022-10-01T01:37:48;8.50;;;4.13;;
9854;SDS011;4966;48.112;9.282;2022-10-01T01:40:17;8.82;;;3.75;;
9854;SDS011;4966;48.112;9.282;2022-10-01T01:42:45;14.13;;;4.13;;
9854;SDS011;4966;48.112;9.282;2022-10-01T01:45:17;9.88;;;4.25;;
9854;SDS011;4966;48.112;9.282;2022-10-01T01:47:47;9.05;;;3.78;;
9854;SDS011;4966;48.112;9.282;2022-10-01T01:50:14;8.35;;;3.55;;
9854;SDS011;4966;48.112;9.282;2022-10-01T01:52:40;10.85;;;5.10;;
9854;SDS011;4966;48.112;9.282;2022-10-01T01:55:07;11.23;;;3.95;;
9854;SDS011;4966;48.112;9.282;2022-10-01T01:57:38;9.63;;;3.60;;
9854;SDS011;4966;48.112;9.282;2022-10-01T02:00:06;9.82;;;3.65;;
9854;SDS011;4966;48.112;9.282;2022-10-01T02:02:32;9.80;;;4.45;;
9854;SDS011;4966;48.112;9.282;2022-10-01T02:05:01;6.93;;;3.40;;
9854;SDS011;4966;48.112;9.282;2022-10-01T02:13:03;15.10;;;4.03;;
9854;SDS011;4966;48.112;9.282;2022-10-01T02:15:38;11.38;;;4.50;;
9854;SDS011;4966;48.112;9.282;2022-10-01T02:18:10;12.80;;;5.10;;
9854;SDS011;4966;48.112;9.282;2022-10-01T02:20:48;12.35;;;5.03;;
9854;SDS011;4966;48.112;9.282;2022-10-01T02:23:23;27.35;;;5.35;;
9854;SDS011;4966;48.112;9.282;2022-10-01T02:25:54;27.75;;;4.57;;
9854;SDS011;4966;48.112;9.282;2022-10-01T02:28:28;19.85;;;4.70;;
9854;SDS011;4966;48.112;9.282;2022-10-01T02:30:56;16.50;;;4.88;;
9854;SDS011;4966;48.112;9.282;2022-10-01T02:33:24;25.63;;;5.22;;
9854;SDS011;4966;48.112;9.282;2022-10-01T02:35:54;29.55;;;4.57;;
9854;SDS011;4966;48.112;9.282;2022-10-01T02:38:22;24.42;;;4.63;;
9854;SDS011;4966;48.112;9.282;2022-10-01T02:40:49;11.98;;;4.57;;
9854;SDS011;4966;48.112;9.282;2022-10-01T02:43:20;20.25;;;4.97;;
9854;SDS011;4966;48.112;9.282;2022-10-01T02:45:50;12.73;;;4.70;;
9854;SDS011;4966;48.112;9.282;2022-10-01T02:48:22;19.50;;;5.07;;
9854;SDS011;4966;48.112;9.282;2022-10-01T02:50:51;20.83;;;4.50;;
9854;SDS011;4966;48.112;9.282;2022-10-01T02:53:19;14.90;;;4.95;;
9854;SDS011;4966;48.112;9.282;2022-10-01T02:55:56;13.35;;;4.47;;
9854;SDS011;4966;48.112;9.282;2022-10-01T02:58:23;14.00;;;4.38;;
9854;SDS011;4966;48.112;9.282;2022-10-01T03:00:49;13.68;;;4.43;;
9854;SDS011;4966;48.112;9.282;2022-10-01T03:03:14;14.45;;;4.80;;
9854;SDS011;4966;48.112;9.282;2022-10-01T03:05:40;13.10;;;4.80;;
9854;SDS011;4966;48.112;9.282;2022-10-01T03:08:05;10.55;;;4.63;;
9854;SDS011;4966;48.112;9.282;2022-10-01T03:10:30;13.60;;;5.28;;
9854;SDS011;4966;48.112;9.282;2022-10-01T03:12:56;11.77;;;5.30;;
9854;SDS011;4966;48.112;9.282;2022-10-01T03:15:21;15.60;;;5.05;;
9854;SDS011;4966;48.112;9.282;2022-10-01T03:17:50;13.20;;;4.78;;
9854;SDS011;4966;48.112;9.282;2022-10-01T03:20:16;14.10;;;4.57;;
9854;SDS011;4966;48.112;9.282;2022-10-01T03:22:45;10.88;;;4.93;;
9854;SDS011;4966;48.112;9.282;2022-10-01T03:25:12;18.50;;;4.82;;
9854;SDS011;4966;48.112;9.282;2022-10-01T03:27:38;9.48;;;4.10;;
9854;SDS011;4966;48.112;9.282;2022-10-01T03:30:03;12.93;;;4.47;;
9854;SDS011;4966;48.112;9.282;2022-10-01T03:32:29;9.40;;;4.53;;
9854;SDS011;4966;48.112;9.282;2022-10-01T03:34:55;9.15;;;4.35;;
9854;SDS011;4966;48.112;9.282;2022-10-01T03:37:21;12.23;;;4.45;;
9854;SDS011;4966;48.112;9.282;2022-10-01T03:39:46;14.90;;;4.57;;
9854;SDS011;4966;48.112;9.282;2022-10-01T03:42:11;12.45;;;5.78;;
9854;SDS011;4966;48.112;9.282;2022-10-01T03:44:37;13.70;;;5.53;;
9854;SDS011;4966;48.112;9.282;2022-10-01T03:47:02;15.52;;;6.97;;
9854;SDS011;4966;48.112;9.282;2022-10-01T03:49:28;17.67;;;7.07;;
9854;SDS011;4966;48.112;9.282;2022-10-01T03:51:53;15.63;;;7.05;;
9854;SDS011;4966;48.112;9.282;2022-10-01T03:54:19;21.60;;;8.90;;
9854;SDS011;4966;48.112;9.282;2022-10-01T03:56:45;18.73;;;7.70;;
9854;SDS011;4966;48.112;9.282;2022-10-01T03:59:10;19.23;;;8.50;;
9854;SDS011;4966;48.112;9.282;2022-10-01T04:01:36;17.88;;;7.88;;
9854;SDS011;4966;48.112;9.282;2022-10-01T04:04:02;18.17;;;8.00;;
9854;SDS011;4966;48.112;9.282;2022-10-01T04:06:28;21.05;;;8.25;;
9854;SDS011;4966;48.112;9.282;2022-10-01T04:08:54;13.75;;;6.93;;
9854;SDS011;4966;48.112;9.282;2022-10-01T04:11:19;15.77;;;7.80;;
9854;SDS011;4966;48.112;9.282;2022-10-01T04:13:45;14.40;;;6.85;;
9854;SDS011;4966;48.112;9.282;2022-10-01T04:16:11;15.27;;;6.50;;
9854;SDS011;4966;48.112;9.282;2022-10-01T04:18:36;14.00;;;7.03;;
9854;SDS011;4966;48.112;9.282;2022-10-01T04:21:02;14.75;;;6.82;;
9854;SDS011;4966;48.112;9.282;2022-10-01T04:23:27;14.57;;;7.10;;
9854;SDS011;4966;48.112;9.282;2022-10-01T04:25:53;16.15;;;7.35;;
9854;SDS011;4966;48.112;9.282;2022-10-01T04:28:18;17.63;;;7.43;;
9854;SDS011;4966;48.112;9.282;2022-10-01T04:30:44;14.75;;;7.43;;
9854;SDS011;4966;48.112;9.282;2022-10-01T04:33:14;15.10;;;6.55;;
9854;SDS011;4966;48.112;9.282;2022-10-01T04:35:40;15.88;;;7.53;;
9854;SDS011;4966;48.112;9.282;2022-10-01T04:38:10;15.13;;;6.93;;
9854;SDS011;4966;48.112;9.282;2022-10-01T04:40:38;16.02;;;7.85;;
9854;SDS011;4966;48.112;9.282;2022-10-01T04:43:03;16.45;;;8.02;;
9854;SDS011;4966;48.112;9.282;2022-10-01T04:45:30;17.92;;;8.07;;
9854;SDS011;4966;48.112;9.282;2022-10-01T04:47:56;16.13;;;7.53;;
9854;SDS011;4966;48.112;9.282;2022-10-01T04:50:23;15.60;;;7.90;;
9854;SDS011;4966;48.112;9.282;2022-10-01T04:52:51;14.60;;;7.03;;
9854;SDS011;4966;48.112;9.282;2022-10-01T04:55:17;16.40;;;8.32;;
9854;SDS011;4966;48.112;9.282;2022-10-01T04:57:44;16.30;;;7.45;;
9854;SDS011;4966;48.112;9.282;2022-10-01T05:00:11;15.43;;;8.05;;
9854;SDS011;4966;48.112;9.282;2022-10-01T05:02:38;18.00;;;8.55;;
9854;SDS011;4966;48.112;9.282;2022-10-01T05:05:04;15.60;;;7.43;;
9854;SDS011;4966;48.112;9.282;2022-10-01T05:07:31;17.75;;;8.60;;
9854;SDS011;4966;48.112;9.282;2022-10-01T05:09:58;16.58;;;7.65;;
9854;SDS011;4966;48.112;9.282;2022-10-01T05:12:24;12.70;;;6.43;;
9854;SDS011;4966;48.112;9.282;2022-10-01T05:14:51;15.45;;;7.82;;
9854;SDS011;4966;48.112;9.282;2022-10-01T05:17:16;16.20;;;8.30;;
9854;SDS011;4966;48.112;9.282;2022-10-01T05:19:42;15.88;;;8.18;;
9854;SDS011;4966;48.112;9.282;2022-10-01T05:22:08;14.82;;;6.45;;
9854;SDS011;4966;48.112;9.282;2022-10-01T05:24:33;14.82;;;7.88;;
9854;SDS011;4966;48.112;9.282;2022-10-01T05:26:59;13.85;;;7.57;;
9854;SDS011;4966;48.112;9.282;2022-10-01T05:29:24;14.80;;;7.80;;
9854;SDS011;4966;48.112;9.282;2022-10-01T05:31:50;18.23;;;8.05;;
9854;SDS011;4966;48.112;9.282;2022-10-01T05:34:15;16.08;;;8.20;;
9854;SDS011;4966;48.112;9.282;2022-10-01T05:36:41;12.73;;;7.05;;
9854;SDS011;4966;48.112;9.282;2022-10-01T05:39:06;17.25;;;8.43;;
9854;SDS011;4966;48.112;9.282;2022-10-01T05:41:31;14.65;;;7.00;;
9854;SDS011;4966;48.112;9.282;2022-10-01T05:43:57;14.45;;;7.65;;
9854;SDS011;4966;48.112;9.282;2022-10-01T05:46:22;14.57;;;7.53;;
9854;SDS011;4966;48.112;9.282;2022-10-01T05:48:47;12.07;;;6.68;;
9854;SDS011;4966;48.112;9.282;2022-10-01T05:51:15;13.70;;;7.13;;
9854;SDS011;4966;48.112;9.282;2022-10-01T05:53:40;15.13;;;8.13;;
9854;SDS011;4966;48.112;9.282;2022-10-01T05:56:06;14.93;;;7.05;;
9854;SDS011;4966;48.112;9.282;2022-10-01T05:58:33;12.63;;;6.93;;
9854;SDS011;4966;48.112;9.282;2022-10-01T06:00:58;12.40;;;6.63;;
9854;SDS011;4966;48.112;9.282;2022-10-01T06:03:24;16.10;;;7.53;;
9854;SDS011;4966;48.112;9.282;2022-10-01T06:05:52;13.55;;;7.03;;
9854;SDS011;4966;48.112;9.282;2022-10-01T06:08:18;14.43;;;7.60;;
9854;SDS011;4966;48.112;9.282;2022-10-01T06:10:43;17.52;;;8.85;;
9854;SDS011;4966;48.112;9.282;2022-10-01T06:13:10;12.98;;;7.15;;
9854;SDS011;4966;48.112;9.282;2022-10-01T06:15:40;12.98;;;6.97;;
9854;SDS011;4966;48.112;9.282;2022-10-01T06:18:06;12.73;;;7.07;;
9854;SDS011;4966;48.112;9.282;2022-10-01T06:20:33;11.57;;;5.78;;
9854;SDS011;4966;48.112;9.282;2022-10-01T06:22:59;13.02;;;6.57;;
9854;SDS011;4966;48.112;9.282;2022-10-01T06:25:25;10.23;;;5.45;;
9854;SDS011;4966;48.112;9.282;2022-10-01T06:27:56;11.65;;;6.10;;
9854;SDS011;4966;48.112;9.282;2022-10-01T06:30:26;13.73;;;6.97;;
9854;SDS011;4966;48.112;9.282;2022-10-01T06:33:03;11.10;;;5.95;;
9854;SDS011;4966;48.112;9.282;2022-10-01T06:35:30;12.25;;;6.40;;
9854;SDS011;4966;48.112;9.282;2022-10-01T06:37:57;14.27;;;7.22;;
9854;SDS011;4966;48.112;9.282;2022-10-01T06:40:22;10.05;;;6.32;;
9854;SDS011;4966;48.112;9.282;2022-10-01T06:42:49;15.60;;;7.43;;
9854;SDS011;4966;48.112;9.282;2022-10-01T06:45:15;11.18;;;6.03;;
9854;SDS011;4966;48.112;9.282;2022-10-01T06:47:42;11.50;;;6.00;;
9854;SDS011;4966;48.112;9.282;2022-10-01T06:50:08;12.15;;;6.03;;
9854;SDS011;4966;48.112;9.282;2022-10-01T06:52:35;12.77;;;6.57;;
9854;SDS011;4966;48.112;9.282;2022-10-01T06:55:14;11.93;;;6.20;;
9854;SDS011;4966;48.112;9.282;2022-10-01T06:58:23;11.80;;;7.82;;
9854;SDS011;4966;48.112;9.282;2022-10-01T07:00:43;14.00;;;7.28;;
9854;SDS011;4966;48.112;9.282;2022-10-01T07:03:13;25.60;;;7.22;;
9854;SDS011;4966;48.112;9.282;2022-10-01T07:05:40;14.85;;;7.20;;
9854;SDS011;4966;48.112;9.282;2022-10-01T07:08:06;15.13;;;6.47;;
9854;SDS011;4966;48.112;9.282;2022-10-01T07:10:32;17.02;;;6.80;;
9854;SDS011;4966;48.112;9.282;2022-10-01T07:13:15;13.10;;;6.45;;
9854;SDS011;4966;48.112;9.282;2022-10-01T07:15:44;17.20;;;6.55;;
9854;SDS011;4966;48.112;9.282;2022-10-01T07:18:09;10.60;;;5.75;;
9854;SDS011;4966;48.112;9.282;2022-10-01T07:20:36;11.45;;;6.03;;
9854;SDS011;4966;48.112;9.282;2022-10-01T07:23:03;10.27;;;5.50;;
9854;SDS011;4966;48.112;9.282;2022-10-01T07:25:30;11.57;;;7.20;;
9854;SDS011;4966;48.112;9.282;2022-10-01T07:27:56;13.50;;;6.18;;
9854;SDS011;4966;48.112;9.282;2022-10-01T07:30:24;9.55;;;5.50;;
9854;SDS011;4966;48.112;9.282;2022-10-01T07:32:51;11.65;;;6.28;;
9854;SDS011;4966;48.112;9.282;2022-10-01T07:35:16;10.70;;;5.82;;
9854;SDS011;4966;48.112;9.282;2022-10-01T07:37:45;11.18;;;6.40;;
9854;SDS011;4966;48.112;9.282;2022-10-01T07:40:11;9.73;;;5.38;;
9854;SDS011;4966;48.112;9.282;2022-10-01T07:42:36;10.30;;;6.07;;
9854;SDS011;4966;48.112;9.282;2022-10-01T07:45:02;11.05;;;5.20;;
9854;SDS011;4966;48.112;9.282;2022-10-01T07:47:30;13.95;;;5.63;;
9854;SDS011;4966;48.112;9.282;2022-10-01T07:49:56;11.30;;;5.65;;
9854;SDS011;4966;48.112;9.282;2022-10-01T07:52:21;11.63;;;5.65;;
9854;SDS011;4966;48.112;9.282;2022-10-01T07:54:47;12.52;;;6.55;;
9854;SDS011;4966;48.112;9.282;2022-10-01T07:57:12;11.63;;;5.03;;
9854;SDS011;4966;48.112;9.282;2022-10-01T07:59:38;9.77;;;5.75;;
9854;SDS011;4966;48.112;9.282;2022-10-01T08:02:04;8.32;;;4.88;;
9854;SDS011;4966;48.112;9.282;2022-10-01T08:04:35;9.05;;;5.25;;
9854;SDS011;4966;48.112;9.282;2022-10-01T08:07:19;9.52;;;5.22;;
9854;SDS011;4966;48.112;9.282;2022-10-01T08:09:44;10.63;;;5.85;;
9854;SDS011;4966;48.112;9.282;2022-10-01T08:12:09;8.98;;;4.93;;
9854;SDS011;4966;48.112;9.282;2022-10-01T08:14:35;9.55;;;5.25;;
9854;SDS011;4966;48.112;9.282;2022-10-01T08:17:00;9.85;;;4.95;;
9854;SDS011;4966;48.112;9.282;2022-10-01T08:19:25;8.45;;;4.97;;
9854;SDS011;4966;48.112;9.282;2022-10-01T08:21:51;9.40;;;5.72;;
9854;SDS011;4966;48.112;9.282;2022-10-01T08:24:16;9.05;;;4.90;;
9854;SDS011;4966;48.112;9.282;2022-10-01T08:26:42;10.68;;;4.97;;
9854;SDS011;4966;48.112;9.282;2022-10-01T08:29:07;8.65;;;4.78;;
9854;SDS011;4966;48.112;9.282;2022-10-01T08:31:33;8.98;;;4.18;;
9854;SDS011;4966;48.112;9.282;2022-10-01T08:33:59;7.82;;;4.07;;
9854;SDS011;4966;48.112;9.282;2022-10-01T08:36:24;8.20;;;4.40;;
9854;SDS011;4966;48.112;9.282;2022-10-01T08:38:49;11.45;;;6.03;;
9854;SDS011;4966;48.112;9.282;2022-10-01T08:44:24;10.48;;;4.22;;
9854;SDS011;4966;48.112;9.282;2022-10-01T08:46:57;6.75;;;3.75;;
9854;SDS011;4966;48.112;9.282;2022-10-01T08:49:34;7.68;;;4.88;;
9854;SDS011;4966;48.112;9.282;2022-10-01T08:52:18;8.20;;;3.90;;
9854;SDS011;4966;48.112;9.282;2022-10-01T08:55:03;8.43;;;3.85;;
9854;SDS011;4966;48.112;9.282;2022-10-01T08:57:38;6.35;;;3.67;;
9854;SDS011;4966;48.112;9.282;2022-10-01T09:00:13;7.68;;;4.20;;
9854;SDS011;4966;48.112;9.282;2022-10-01T09:02:41;9.00;;;4.35;;
9854;SDS011;4966;48.112;9.282;2022-10-01T09:05:26;5.80;;;3.30;;
9854;SDS011;4966;48.112;9.282;2022-10-01T09:10:55;6.25;;;4.35;;
9854;SDS011;4966;48.112;9.282;2022-10-01T09:21:18;7.40;;;3.42;;
9854;SDS011;4966;48.112;9.282;2022-10-01T09:24:06;5.03;;;2.90;;
9854;SDS011;4966;48.112;9.282;2022-10-01T09:26:39;4.15;;;2.50;;
9854;SDS011;4966;48.112;9.282;2022-10-01T09:29:13;6.93;;;3.40;;
9854;SDS011;4966;48.112;9.282;2022-10-01T09:31:43;4.75;;;2.47;;
9854;SDS011;4966;48.112;9.282;2022-10-01T09:34:14;5.13;;;2.80;;
9854;SDS011;4966;48.112;9.282;2022-10-01T09:39:32;5.97;;;3.30;;
9854;SDS011;4966;48.112;9.282;2022-10-01T09:42:02;5.22;;;3.17;;
9854;SDS011;4966;48.112;9.282;2022-10-01T09:44:28;6.32;;;3.75;;
9854;SDS011;4966;48.112;9.282;2022-10-01T09:46:56;4.22;;;2.70;;
9854;SDS011;4966;48.112;9.282;2022-10-01T09:49:32;5.97;;;3.08;;
9854;SDS011;4966;48.112;9.282;2022-10-01T09:52:05;3.97;;;2.30;;
9854;SDS011;4966;48.112;9.282;2022-10-01T09:54:42;10.77;;;4.82;;
9854;SDS011;4966;48.112;9.282;2022-10-01T09:57:13;5.15;;;2.38;;
9854;SDS011;4966;48.112;9.282;2022-10-01T09:59:46;4.70;;;2.83;;
9854;SDS011;4966;48.112;9.282;2022-10-01T10:02:25;5.57;;;2.83;;
9854;SDS011;4966;48.112;9.282;2022-10-01T10:05:05;3.45;;;1.98;;
9854;SDS011;4966;48.112;9.282;2022-10-01T10:07:32;4.22;;;2.50;;
9854;SDS011;4966;48.112;9.282;2022-10-01T10:10:18;3.67;;;2.08;;
9854;SDS011;4966;48.112;9.282;2022-10-01T10:12:47;3.38;;;2.03;;
9854;SDS011;4966;48.112;9.282;2022-10-01T10:15:20;3.78;;;2.28;;
9854;SDS011;4966;48.112;9.282;2022-10-01T10:17:47;3.63;;;1.92;;
9854;SDS011;4966;48.112;9.282;2022-10-01T10:22:50;2.92;;;1.65;;
9854;SDS011;4966;48.112;9.282;2022-10-01T10:25:19;3.22;;;1.48;;
9854;SDS011;4966;48.112;9.282;2022-10-01T10:27:52;4.15;;;1.83;;
9854;SDS011;4966;48.112;9.282;2022-10-01T10:30:20;3.92;;;2.08;;
9854;SDS011;4966;48.112;9.282;2022-10-01T10:32:49;5.47;;;2.17;;
9854;SDS011;4966;48.112;9.282;2022-10-01T10:35:16;3.70;;;1.73;;
9854;SDS011;4966;48.112;9.282;2022-10-01T10:37:54;5.15;;;2.33;;
9854;SDS011;4966;48.112;9.282;2022-10-01T10:40:22;5.22;;;1.75;;
9854;SDS011;4966;48.112;9.282;2022-10-01T10:42:50;3.50;;;2.10;;
9854;SDS011;4966;48.112;9.282;2022-10-01T10:45:18;2.78;;;1.70;;
9854;SDS011;4966;48.112;9.282;2022-10-01T10:47:48;3.50;;;1.98;;
9854;SDS011;4966;48.112;9.282;2022-10-01T10:50:25;5.00;;;2.13;;
9854;SDS011;4966;48.112;9.282;2022-10-01T10:52:54;5.78;;;1.80;;
9854;SDS011;4966;48.112;9.282;2022-10-01T10:55:22;3.85;;;1.83;;
9854;SDS011;4966;48.112;9.282;2022-10-01T10:57:49;3.15;;;1.63;;
9854;SDS011;4966;48.112;9.282;2022-10-01T11:00:16;3.60;;;1.92;;
9854;SDS011;4966;48.112;9.282;2022-10-01T11:02:48;3.20;;;1.70;;
9854;SDS011;4966;48.112;9.282;2022-10-01T11:05:22;2.17;;;1.25;;
9854;SDS011;4966;48.112;9.282;2022-10-01T11:07:49;5.47;;;1.65;;
9854;SDS011;4966;48.112;9.282;2022-10-01T11:18:24;4.93;;;1.77;;
9854;SDS011;4966;48.112;9.282;2022-10-01T11:37:56;2.58;;;1.30;;
9854;SDS011;4966;48.112;9.282;2022-10-01T11:40:31;2.78;;;1.55;;
9854;SDS011;4966;48.112;9.282;2022-10-01T11:43:15;2.90;;;1.40;;
9854;SDS011;4966;48.112;9.282;2022-10-01T11:45:55;3.10;;;1.30;;
9854;SDS011;4966;48.112;9.282;2022-10-01T11:48:30;26.10;;;6.63;;
9854;SDS011;4966;48.112;9.282;2022-10-01T11:51:04;2.78;;;1.20;;
9854;SDS011;4966;48.112;9.282;2022-10-01T11:53:39;3.13;;;1.55;;
9854;SDS011;4966;48.112;9.282;2022-10-01T11:56:19;3.80;;;1.85;;
9854;SDS011;4966;48.112;9.282;2022-10-01T12:02:01;3.08;;;1.33;;
9854;SDS011;4966;48.112;9.282;2022-10-01T12:04:43;6.53;;;2.60;;
9854;SDS011;4966;48.112;9.282;2022-10-01T12:10:27;1.60;;;1.00;;
9854;SDS011;4966;48.112;9.282;2022-10-01T12:18:14;3.58;;;1.25;;
9854;SDS011;4966;48.112;9.282;2022-10-01T12:20:47;2.47;;;1.30;;
9854;SDS011;4966;48.112;9.282;2022-10-01T12:23:18;3.03;;;1.20;;
9854;SDS011;4966;48.112;9.282;2022-10-01T12:28:26;3.40;;;1.17;;
9854;SDS011;4966;48.112;9.282;2022-10-01T12:31:02;2.00;;;0.90;;
9854;SDS011;4966;48.112;9.282;2022-10-01T12:36:17;2.42;;;1.00;;
9854;SDS011;4966;48.112;9.282;2022-10-01T12:44:21;2.78;;;1.33;;
9854;SDS011;4966;48.112;9.282;2022-10-01T12:57:58;2.88;;;0.90;;
9854;SDS011;4966;48.112;9.282;2022-10-01T13:00:26;1.60;;;0.90;;
9854;SDS011;4966;48.112;9.282;2022-10-01T13:06:14;2.10;;;1.05;;
9854;SDS011;4966;48.112;9.282;2022-10-01T13:08:28;2.90;;;0.93;;
9854;SDS011;4966;48.112;9.282;2022-10-01T13:11:26;4.47;;;1.80;;
9854;SDS011;4966;48.112;9.282;2022-10-01T13:14:06;4.63;;;1.70;;
9854;SDS011;4966;48.112;9.282;2022-10-01T13:16:39;2.40;;;1.17;;
9854;SDS011;4966;48.112;9.282;2022-10-01T13:19:13;4.05;;;1.75;;
9854;SDS011;4966;48.112;9.282;2022-10-01T13:22:05;3.47;;;1.13;;
9854;SDS011;4966;48.112;9.282;2022-10-01T13:24:52;2.17;;;1.10;;
9854;SDS011;4966;48.112;9.282;2022-10-01T13:30:02;2.60;;;0.98;;
9854;SDS011;4966;48.112;9.282;2022-10-01T13:32:55;2.58;;;0.80;;
9854;SDS011;4966;48.112;9.282;2022-10-01T13:37:57;2.80;;;0.95;;
9854;SDS011;4966;48.112;9.282;2022-10-01T13:40:30;1.45;;;0.70;;
9854;SDS011;4966;48.112;9.282;2022-10-01T13:43:06;1.60;;;0.80;;
9854;SDS011;4966;48.112;9.282;2022-10-01T13:45:40;2.17;;;1.00;;
9854;SDS011;4966;48.112;9.282;2022-10-01T13:48:14;2.03;;;1.00;;
9854;SDS011;4966;48.112;9.282;2022-10-01T13:53:30;1.67;;;1.10;;
9854;SDS011;4966;48.112;9.282;2022-10-01T13:55:59;1.63;;;0.80;;
9854;SDS011;4966;48.112;9.282;2022-10-01T14:00:54;1.42;;;0.90;;
9854;SDS011;4966;48.112;9.282;2022-10-01T14:03:33;2.13;;;1.05;;
9854;SDS011;4966;48.112;9.282;2022-10-01T14:06:07;1.90;;;1.00;;
9854;SDS011;4966;48.112;9.282;2022-10-01T14:08:42;1.38;;;0.75;;
9854;SDS011;4966;48.112;9.282;2022-10-01T14:11:14;6.45;;;1.85;;
9854;SDS011;4966;48.112;9.282;2022-10-01T14:14:47;4.82;;;2.55;;
9854;SDS011;4966;48.112;9.282;2022-10-01T14:17:23;1.70;;;0.80;;
9854;SDS011;4966;48.112;9.282;2022-10-01T14:19:50;1.75;;;0.95;;
9854;SDS011;4966;48.112;9.282;2022-10-01T14:30:22;3.90;;;1.73;;
9854;SDS011;4966;48.112;9.282;2022-10-01T14:33:04;2.38;;;1.27;;
9854;SDS011;4966;48.112;9.282;2022-10-01T14:36:02;4.82;;;2.00;;
9854;SDS011;4966;48.112;9.282;2022-10-01T14:38:34;2.72;;;1.10;;
9854;SDS011;4966;48.112;9.282;2022-10-01T14:40:59;4.22;;;2.13;;
9854;SDS011;4966;48.112;9.282;2022-10-01T14:43:27;2.20;;;1.02;;
9854;SDS011;4966;48.112;9.282;2022-10-01T14:46:00;3.83;;;1.00;;
9854;SDS011;4966;48.112;9.282;2022-10-01T14:48:30;2.10;;;1.23;;
9854;SDS011;4966;48.112;9.282;2022-10-01T14:50:58;3.38;;;1.13;;
9854;SDS011;4966;48.112;9.282;2022-10-01T14:53:44;2.15;;;1.10;;
9854;SDS011;4966;48.112;9.282;2022-10-01T14:56:13;1.80;;;0.80;;
9854;SDS011;4966;48.112;9.282;2022-10-01T14:58:44;2.65;;;0.80;;
9854;SDS011;4966;48.112;9.282;2022-10-01T15:01:17;2.67;;;0.80;;
9854;SDS011;4966;48.112;9.282;2022-10-01T15:03:43;1.40;;;0.80;;
9854;SDS011;4966;48.112;9.282;2022-10-01T15:06:10;2.72;;;1.00;;
9854;SDS011;4966;48.112;9.282;2022-10-01T15:08:41;1.65;;;0.80;;
9854;SDS011;4966;48.112;9.282;2022-10-01T15:11:10;1.15;;;0.65;;
9854;SDS011;4966;48.112;9.282;2022-10-01T15:13:41;1.42;;;0.73;;
9854;SDS011;4966;48.112;9.282;2022-10-01T15:16:27;1.67;;;1.00;;
9854;SDS011;4966;48.112;9.282;2022-10-01T15:21:29;2.67;;;1.20;;
9854;SDS011;4966;48.112;9.282;2022-10-01T15:23:59;2.60;;;1.05;;
9854;SDS011;4966;48.112;9.282;2022-10-01T15:26:28;2.47;;;0.98;;
9854;SDS011;4966;48.112;9.282;2022-10-01T15:31:29;1.48;;;0.70;;
9854;SDS011;4966;48.112;9.282;2022-10-01T15:33:56;1.42;;;0.70;;
9854;SDS011;4966;48.112;9.282;2022-10-01T15:36:25;1.17;;;0.63;;
9854;SDS011;4966;48.112;9.282;2022-10-01T15:38:51;1.30;;;0.60;;
9854;SDS011;4966;48.112;9.282;2022-10-01T15:41:25;3.17;;;1.55;;
9854;SDS011;4966;48.112;9.282;2022-10-01T15:43:54;1.85;;;0.68;;
9854;SDS011;4966;48.112;9.282;2022-10-01T15:46:25;5.25;;;1.42;;
9854;SDS011;4966;48.112;9.282;2022-10-01T15:49:09;6.03;;;2.78;;
9854;SDS011;4966;48.112;9.282;2022-10-01T15:51:52;3.10;;;1.15;;
9854;SDS011;4966;48.112;9.282;2022-10-01T15:54:41;1.70;;;0.80;;
9854;SDS011;4966;48.112;9.282;2022-10-01T15:57:07;1.83;;;0.80;;
9854;SDS011;4966;48.112;9.282;2022-10-01T15:59:39;2.15;;;0.88;;
9854;SDS011;4966;48.112;9.282;2022-10-01T16:02:06;2.03;;;0.68;;
9854;SDS011;4966;48.112;9.282;2022-10-01T16:04:33;5.10;;;1.52;;
9854;SDS011;4966;48.112;9.282;2022-10-01T16:06:59;10.05;;;2.75;;
9854;SDS011;4966;48.112;9.282;2022-10-01T16:09:25;9.30;;;2.17;;
9854;SDS011;4966;48.112;9.282;2022-10-01T16:19:41;3.05;;;1.42;;
9854;SDS011;4966;48.112;9.282;2022-10-01T16:24:43;1.98;;;1.02;;
9854;SDS011;4966;48.112;9.282;2022-10-01T16:27:27;2.70;;;1.00;;
9854;SDS011;4966;48.112;9.282;2022-10-01T16:32:25;2.97;;;1.10;;
9854;SDS011;4966;48.112;9.282;2022-10-01T16:34:51;1.33;;;0.82;;
9854;SDS011;4966;48.112;9.282;2022-10-01T16:37:17;1.30;;;0.70;;
9854;SDS011;4966;48.112;9.282;2022-10-01T16:39:42;4.15;;;1.15;;
9854;SDS011;4966;48.112;9.282;2022-10-01T16:42:10;2.80;;;1.63;;
9854;SDS011;4966;48.112;9.282;2022-10-01T16:44:42;2.20;;;1.25;;
9854;SDS011;4966;48.112;9.282;2022-10-01T16:47:08;4.20;;;1.42;;
9854;SDS011;4966;48.112;9.282;2022-10-01T16:49:35;3.40;;;1.70;;
9854;SDS011;4966;48.112;9.282;2022-10-01T16:52:00;2.70;;;1.20;;
9854;SDS011;4966;48.112;9.282;2022-10-01T16:54:26;4.15;;;1.60;;
9854;SDS011;4966;48.112;9.282;2022-10-01T16:56:52;2.22;;;1.20;;
9854;SDS011;4966;48.112;9.282;2022-10-01T16:59:19;2.17;;;1.00;;
9854;SDS011;4966;48.112;9.282;2022-10-01T17:01:50;2.13;;;1.00;;
9854;SDS011;4966;48.112;9.282;2022-10-01T17:04:19;2.55;;;1.30;;
9854;SDS011;4966;48.112;9.282;2022-10-01T17:06:45;2.55;;;1.40;;
9854;SDS011;4966;48.112;9.282;2022-10-01T17:09:12;1.50;;;0.85;;
9854;SDS011;4966;48.112;9.282;2022-10-01T17:11:37;5.03;;;2.50;;
9854;SDS011;4966;48.112;9.282;2022-10-01T17:14:06;2.72;;;1.58;;
9854;SDS011;4966;48.112;9.282;2022-10-01T17:16:34;5.05;;;1.90;;
9854;SDS011;4966;48.112;9.282;2022-10-01T17:19:00;2.10;;;1.15;;
9854;SDS011;4966;48.112;9.282;2022-10-01T17:21:26;3.38;;;1.75;;
9854;SDS011;4966;48.112;9.282;2022-10-01T17:23:53;2.95;;;1.25;;
9854;SDS011;4966;48.112;9.282;2022-10-01T17:26:18;4.30;;;1.30;;
9854;SDS011;4966;48.112;9.282;2022-10-01T17:28:44;3.47;;;1.60;;
9854;SDS011;4966;48.112;9.282;2022-10-01T17:31:09;2.55;;;1.10;;
9854;SDS011;4966;48.112;9.282;2022-10-01T17:33:35;2.83;;;1.20;;